Scot Stuttgart — 9HA4097 — position and weather

sailwx.info

Track history (hours):
 
Tides and Currents Weather Stations Pressure Air Temp Water Temp Dewpoint Dewpoint Depression Visibility Wind Speed Wind Dir Waves Ship Positions

Scot Stuttgart

Last reported at 2018-Jan-19 15:30 UTC. Time now 2018-Jan-19 15:49 UTC.
Position N 38°43' W 009°57'.

Length 117 m; draft 5.8 m.

Type: Tanker. MMSI: 249072000.

Date/timePositionNaut miles runAvg speedWind from/ knotsBaromVisibWave heightAir tempDewpointWater temp
2018-Jan-19 15:30N 38°43' W 009°57'611.1
2018-Jan-19 15:00N 38°37' W 009°56'510.6
2018-Jan-19 14:30N 38°32' W 009°54'510.5
2018-Jan-19 14:00N 38°27' W 009°53'12010.3
2018-Jan-19 02:21N 36°36' W 008°56'  
2018-Jan-12 05:43N 11°15' W 017°16'314.0
2018-Jan-12 05:30N 11°13' W 017°14'7114.2
2018-Jan-12 00:33N 10°19' W 016°27'314.7
2018-Jan-12 00:20N 10°17' W 016°25'514.8
2018-Jan-12 00:00N 10°13' W 016°22'814.5
2018-Jan-11 23:25N 10°06' W 016°16'613.8
2018-Jan-11 23:00N 10°05' W 016°11'814.8
2018-Jan-11 22:27N 10°05' W 016°02'614.7
2018-Jan-11 22:00N 10°05' W 015°56'714.8
2018-Jan-11 21:30N 10°05' W 015°48'914.8
2018-Jan-11 20:53N 10°04' W 015°39'614.9
2018-Jan-11 20:30N 10°04' W 015°33'714.9
2018-Jan-11 20:00N 10°04' W 015°26'714.7
2018-Jan-11 19:31N 10°05' W 015°18'815.1
2018-Jan-11 19:01N 10°08' W 015°11'815.0
2018-Jan-11 18:30N 10°11' W 015°05'814.8
2018-Jan-11 18:00N 10°15' W 014°58'714.7
2018-Jan-11 17:30N 10°18' W 014°51'714.0
2018-Jan-11 17:00N 10°22' W 014°45'104 2.5
2018-Jan-09 23:24N 08°38' W 014°43'512.5
2018-Jan-09 23:00N 08°34' W 014°41'612.6
2018-Jan-09 22:30N 08°28' W 014°38'612.6
2018-Jan-09 22:00N 08°22' W 014°36'612.6
2018-Jan-09 21:30N 08°16' W 014°34'812.5
2018-Jan-09 20:50N 08°09' W 014°30'412.3
2018-Jan-09 20:30N 08°05' W 014°29'912.4
2018-Jan-09 19:49N 07°57' W 014°25'  
Track history (hours):
 
Tides and Currents Weather Stations Pressure Air Temp Water Temp Dewpoint Dewpoint Depression Visibility Wind Speed Wind Dir Waves Ship Positions

Scot Stuttgart

Last reported at 2018-Jan-19 15:30 UTC. Time now 2018-Jan-19 15:49 UTC.
Position N 38°43' W 009°57'.

Length 117 m; draft 5.8 m.

Type: Tanker. MMSI: 249072000.

Date/timePositionNaut miles runAvg speedWind from/ knotsBaromVisibWave heightAir tempDewpointWater temp
2018-Jan-19 15:30N 38°43' W 009°57'611.1
2018-Jan-19 15:00N 38°37' W 009°56'510.6
2018-Jan-19 14:30N 38°32' W 009°54'510.5
2018-Jan-19 14:00N 38°27' W 009°53'12010.3
2018-Jan-19 02:21N 36°36' W 008°56'  
2018-Jan-12 05:43N 11°15' W 017°16'314.0
2018-Jan-12 05:30N 11°13' W 017°14'7114.2
2018-Jan-12 00:33N 10°19' W 016°27'314.7
2018-Jan-12 00:20N 10°17' W 016°25'514.8
2018-Jan-12 00:00N 10°13' W 016°22'814.5
2018-Jan-11 23:25N 10°06' W 016°16'613.8
2018-Jan-11 23:00N 10°05' W 016°11'814.8
2018-Jan-11 22:27N 10°05' W 016°02'614.7
2018-Jan-11 22:00N 10°05' W 015°56'714.8
2018-Jan-11 21:30N 10°05' W 015°48'914.8
2018-Jan-11 20:53N 10°04' W 015°39'614.9
2018-Jan-11 20:30N 10°04' W 015°33'714.9
2018-Jan-11 20:00N 10°04' W 015°26'714.7
2018-Jan-11 19:31N 10°05' W 015°18'815.1
2018-Jan-11 19:01N 10°08' W 015°11'815.0
2018-Jan-11 18:30N 10°11' W 015°05'814.8
2018-Jan-11 18:00N 10°15' W 014°58'714.7
2018-Jan-11 17:30N 10°18' W 014°51'714.0
2018-Jan-11 17:00N 10°22' W 014°45'104 2.5
2018-Jan-09 23:24N 08°38' W 014°43'512.5
2018-Jan-09 23:00N 08°34' W 014°41'612.6
2018-Jan-09 22:30N 08°28' W 014°38'612.6
2018-Jan-09 22:00N 08°22' W 014°36'612.6
2018-Jan-09 21:30N 08°16' W 014°34'812.5
2018-Jan-09 20:50N 08°09' W 014°30'412.3
2018-Jan-09 20:30N 08°05' W 014°29'912.4
2018-Jan-09 19:49N 07°57' W 014°25'  

Dump ship's entire track history